createdAt,value
2023-01-30T00:01:03.827Z,21.43
2023-01-30T00:03:30.429Z,21.37
2023-01-30T00:05:56.987Z,22.27
2023-01-30T00:08:24.216Z,21.90
2023-01-30T00:10:50.706Z,20.17
2023-01-30T00:13:17.289Z,21.20
2023-01-30T00:15:43.951Z,20.33
2023-01-30T00:18:10.603Z,20.37
2023-01-30T00:20:37.468Z,20.87
2023-01-30T00:23:04.383Z,20.23
2023-01-30T00:25:31.714Z,20.50
2023-01-30T00:28:02.239Z,20.47
2023-01-30T00:30:29.416Z,21.23
2023-01-30T00:32:59.737Z,21.27
2023-01-30T00:35:28.693Z,21.43
2023-01-30T00:37:59.280Z,21.57
2023-01-30T00:40:27.262Z,19.77
2023-01-30T00:43:12.917Z,22.90
2023-01-30T00:46:01.424Z,21.57
2023-01-30T00:48:28.315Z,21.63
2023-01-30T00:50:54.770Z,20.77
2023-01-30T00:53:21.276Z,22.33
2023-01-30T00:55:47.759Z,22.27
2023-01-30T00:58:14.196Z,21.77
2023-01-30T01:00:40.698Z,22.70
2023-01-30T01:03:07.579Z,19.57
2023-01-30T01:05:34.491Z,21.63
2023-01-30T01:08:01.304Z,22.73
2023-01-30T01:10:27.785Z,18.93
2023-01-30T01:12:54.253Z,22.73
2023-01-30T01:15:22.375Z,20.53
2023-01-30T01:17:49.774Z,21.63
2023-01-30T01:20:17.740Z,23.30
2023-01-30T01:22:44.647Z,21.10
2023-01-30T01:25:11.578Z,21.47
2023-01-30T01:27:38.593Z,20.90
2023-01-30T01:30:06.194Z,21.50
2023-01-30T01:32:32.760Z,22.30
2023-01-30T01:34:59.228Z,21.77
2023-01-30T01:37:25.691Z,21.77
2023-01-30T01:40:10.992Z,20.80
2023-01-30T01:42:38.760Z,21.87
2023-01-30T01:45:15.368Z,23.23
2023-01-30T01:47:59.208Z,20.57
2023-01-30T01:50:38.513Z,21.20
2023-01-30T01:53:05.564Z,22.10
2023-01-30T01:55:32.583Z,19.73
2023-01-30T01:58:08.700Z,21.90
2023-01-30T02:00:35.153Z,22.53
2023-01-30T02:03:19.706Z,21.33
2023-01-30T02:05:50.788Z,19.10
2023-01-30T02:08:21.971Z,21.43
2023-01-30T02:11:03.171Z,20.70
2023-01-30T02:13:30.327Z,19.57
2023-01-30T02:16:00.184Z,19.40
2023-01-30T02:18:29.473Z,21.17
2023-01-30T02:21:05.157Z,19.80
2023-01-30T02:23:56.572Z,20.43
2023-01-30T02:27:00.727Z,22.33
2023-01-30T02:30:05.172Z,20.13
2023-01-30T02:32:59.502Z,21.70
2023-01-30T02:35:38.488Z,19.50
2023-01-30T02:38:20.233Z,19.50
2023-01-30T02:40:56.004Z,20.13
2023-01-30T02:43:40.087Z,21.50
2023-01-30T02:46:20.336Z,20.90
2023-01-30T02:49:07.850Z,21.00
2023-01-30T02:51:37.757Z,20.53
2023-01-30T02:54:11.181Z,20.47
2023-01-30T02:56:57.451Z,19.50
2023-01-30T02:59:44.644Z,21.37
2023-01-30T03:02:16.532Z,18.50
2023-01-30T03:04:58.465Z,18.63
2023-01-30T03:08:04.237Z,17.80
2023-01-30T03:10:39.572Z,17.83
2023-01-30T03:13:38.428Z,18.93
2023-01-30T03:16:38.908Z,18.70
2023-01-30T03:19:09.817Z,19.37
2023-01-30T03:21:42.065Z,18.17
2023-01-30T03:24:08.699Z,18.00
2023-01-30T03:26:39.929Z,17.60
2023-01-30T03:29:06.429Z,17.77
2023-01-30T03:31:33.213Z,18.77
2023-01-30T03:33:59.724Z,17.47
2023-01-30T03:36:26.226Z,18.00
2023-01-30T03:38:52.808Z,19.97
2023-01-30T03:41:19.395Z,18.23
2023-01-30T03:43:45.775Z,18.40
2023-01-30T03:46:12.246Z,18.37
2023-01-30T03:48:38.760Z,18.30
2023-01-30T03:51:05.406Z,17.50
2023-01-30T03:53:31.830Z,18.53
2023-01-30T03:55:58.237Z,19.37
2023-01-30T03:58:24.783Z,19.13
2023-01-30T04:00:51.302Z,17.70
2023-01-30T04:03:17.951Z,19.00
2023-01-30T04:05:44.369Z,18.70
2023-01-30T04:08:11.099Z,18.63
2023-01-30T04:10:37.487Z,19.37
2023-01-30T04:13:03.864Z,17.07
2023-01-30T04:15:30.342Z,18.90
2023-01-30T04:17:56.789Z,17.87
2023-01-30T04:20:23.395Z,18.80
2023-01-30T04:22:49.788Z,19.63
2023-01-30T04:25:17.009Z,19.53
2023-01-30T04:27:44.504Z,19.03
2023-01-30T04:30:11.238Z,18.67
2023-01-30T04:32:37.652Z,18.17
2023-01-30T04:35:04.475Z,20.00
2023-01-30T04:37:31.139Z,18.90
2023-01-30T04:39:57.588Z,18.60
2023-01-30T04:42:24.035Z,19.23
2023-01-30T04:44:50.467Z,18.20
2023-01-30T04:47:17.560Z,18.10
2023-01-30T04:49:44.176Z,17.67
2023-01-30T04:52:10.590Z,18.30
2023-01-30T04:54:37.053Z,18.53
2023-01-30T04:57:03.598Z,19.13
2023-01-30T04:59:30.051Z,20.20
2023-01-30T05:01:56.609Z,17.83
2023-01-30T05:04:23.161Z,17.23
2023-01-30T05:06:49.608Z,19.50
2023-01-30T05:09:16.215Z,18.23
2023-01-30T05:11:42.683Z,18.30
2023-01-30T05:14:09.165Z,18.40
2023-01-30T05:16:35.672Z,17.60
2023-01-30T05:19:02.114Z,18.07
2023-01-30T05:21:28.753Z,17.30
2023-01-30T05:23:56.438Z,17.37
2023-01-30T05:26:24.134Z,16.17
2023-01-30T05:28:55.627Z,16.63
2023-01-30T05:31:22.237Z,16.73
2023-01-30T05:33:50.315Z,16.70
2023-01-30T05:36:18.907Z,16.17
2023-01-30T05:38:45.613Z,16.93
2023-01-30T05:41:14.341Z,15.87
2023-01-30T05:43:41.488Z,15.40
2023-01-30T05:46:09.806Z,15.93
2023-01-30T05:48:36.255Z,16.57
2023-01-30T05:51:02.679Z,16.73
2023-01-30T05:53:32.352Z,15.90
2023-01-30T05:56:01.305Z,14.20
2023-01-30T05:58:28.667Z,14.40
2023-01-30T06:01:00.539Z,14.20
2023-01-30T06:03:27.103Z,15.37
2023-01-30T06:05:53.585Z,15.13
2023-01-30T06:08:20.396Z,14.07
2023-01-30T06:10:46.814Z,13.40
2023-01-30T06:13:13.259Z,14.00
2023-01-30T06:15:39.907Z,14.50
2023-01-30T06:18:06.692Z,14.90
2023-01-30T06:20:33.204Z,16.17
2023-01-30T06:22:59.613Z,14.70
2023-01-30T06:25:27.328Z,16.30
2023-01-30T06:27:53.739Z,14.20
2023-01-30T06:30:20.281Z,14.70
2023-01-30T06:32:50.494Z,15.20
2023-01-30T06:35:17.377Z,15.73
2023-01-30T06:37:45.497Z,14.93
2023-01-30T06:40:13.118Z,13.67
2023-01-30T06:42:44.428Z,14.43
2023-01-30T06:45:11.288Z,14.80
2023-01-30T06:47:48.721Z,15.07
2023-01-30T06:50:17.814Z,15.83
2023-01-30T06:52:49.279Z,14.83
2023-01-30T06:55:17.931Z,14.93
2023-01-30T06:57:45.643Z,15.87
2023-01-30T07:00:15.945Z,15.37
2023-01-30T07:02:42.379Z,14.60
2023-01-30T07:05:10.211Z,15.57
2023-01-30T07:07:37.569Z,15.40
2023-01-30T07:10:08.823Z,15.37
2023-01-30T07:12:36.351Z,15.50
2023-01-30T07:15:04.682Z,14.30
2023-01-30T07:17:31.159Z,14.57
2023-01-30T07:19:57.633Z,15.27
2023-01-30T07:22:24.138Z,17.00
2023-01-30T07:24:50.585Z,16.20
2023-01-30T07:27:17.390Z,13.17
2023-01-30T07:29:43.908Z,13.40
2023-01-30T07:32:19.876Z,13.13
2023-01-30T07:34:47.602Z,12.50
2023-01-30T07:37:14.847Z,13.93
2023-01-30T07:39:41.678Z,12.27
2023-01-30T07:42:08.317Z,13.47
2023-01-30T07:44:34.823Z,13.60
2023-01-30T07:47:01.379Z,13.57
2023-01-30T07:49:27.923Z,11.60
2023-01-30T07:51:54.462Z,13.67
2023-01-30T07:54:21.034Z,13.33
2023-01-30T07:56:47.414Z,13.70
2023-01-30T07:59:13.881Z,15.03
2023-01-30T08:01:40.335Z,14.30
2023-01-30T08:04:06.804Z,13.70
2023-01-30T08:06:38.809Z,14.30
2023-01-30T08:09:06.736Z,13.17
2023-01-30T08:11:33.789Z,13.53
2023-01-30T08:14:00.427Z,12.07
2023-01-30T08:16:27.309Z,14.53
2023-01-30T08:18:53.929Z,13.77
2023-01-30T08:21:20.597Z,11.97
2023-01-30T08:23:47.119Z,11.77
2023-01-30T08:26:13.736Z,12.40
2023-01-30T08:28:40.789Z,13.17
2023-01-30T08:31:12.388Z,13.37
2023-01-30T08:33:39.254Z,12.00
2023-01-30T08:36:06.010Z,14.57
2023-01-30T08:38:32.484Z,13.27
2023-01-30T08:41:00.897Z,13.57
2023-01-30T08:43:27.416Z,14.23
2023-01-30T08:45:54.728Z,14.20
2023-01-30T08:48:21.213Z,13.97
2023-01-30T08:50:47.712Z,12.90
2023-01-30T08:53:14.334Z,14.40
2023-01-30T08:55:40.792Z,14.50
2023-01-30T08:58:07.280Z,14.30
2023-01-30T09:00:33.810Z,12.47
2023-01-30T09:03:01.763Z,13.20
2023-01-30T09:05:29.958Z,12.37
2023-01-30T09:07:56.496Z,11.77
2023-01-30T09:10:24.315Z,9.90
2023-01-30T09:12:50.817Z,9.77
2023-01-30T09:15:17.320Z,9.60
2023-01-30T09:17:44.787Z,9.40
2023-01-30T09:20:12.420Z,9.60
2023-01-30T09:22:39.174Z,8.20
2023-01-30T09:25:06.795Z,8.13
2023-01-30T09:27:33.691Z,7.43
2023-01-30T09:30:00.199Z,6.70
2023-01-30T09:32:26.632Z,7.70
2023-01-30T09:34:53.441Z,5.83
2023-01-30T09:37:19.848Z,6.30
2023-01-30T09:39:46.466Z,5.00
2023-01-30T09:42:58.804Z,5.87
2023-01-30T09:45:59.158Z,5.10
2023-01-30T09:48:35.383Z,4.33
2023-01-30T09:51:22.743Z,6.50
2023-01-30T09:54:14.138Z,4.50
2023-01-30T09:56:41.216Z,4.73
2023-01-30T09:59:19.454Z,5.63
2023-01-30T10:01:48.624Z,4.10
2023-01-30T10:04:18.049Z,4.27
2023-01-30T10:07:04.744Z,4.00
2023-01-30T10:09:56.696Z,4.83
2023-01-30T10:12:50.527Z,4.17
2023-01-30T10:15:42.724Z,3.57
2023-01-30T10:18:39.581Z,3.73
2023-01-30T10:21:26.962Z,4.47
2023-01-30T10:24:05.701Z,3.60
2023-01-30T10:26:32.575Z,4.60
2023-01-30T10:29:31.414Z,4.20
2023-01-30T10:32:10.145Z,3.30
2023-01-30T10:34:43.388Z,5.27
2023-01-30T10:37:18.507Z,3.73
2023-01-30T10:40:14.290Z,3.77
2023-01-30T10:42:49.714Z,4.10
2023-01-30T10:45:21.171Z,3.67
2023-01-30T10:48:31.434Z,3.80
2023-01-30T10:51:29.531Z,3.97
2023-01-30T10:54:05.187Z,4.07
2023-01-30T10:56:47.381Z,3.87
2023-01-30T10:59:50.185Z,3.70
2023-01-30T11:02:16.659Z,4.07
2023-01-30T11:04:56.431Z,3.60
2023-01-30T11:07:22.906Z,4.10
2023-01-30T11:09:49.730Z,4.23
2023-01-30T11:12:16.190Z,4.20
2023-01-30T11:14:56.632Z,3.30
2023-01-30T11:17:34.073Z,4.40
2023-01-30T11:20:22.623Z,3.70
2023-01-30T11:23:06.961Z,3.40
2023-01-30T11:25:49.219Z,3.80
2023-01-30T11:28:22.337Z,4.80
2023-01-30T11:30:54.686Z,3.77
2023-01-30T11:33:23.837Z,4.27
2023-01-30T11:35:55.776Z,4.00
2023-01-30T11:38:25.507Z,5.67
2023-01-30T11:41:04.561Z,3.57
2023-01-30T11:43:33.865Z,4.03
2023-01-30T11:46:00.814Z,3.80
2023-01-30T11:48:33.934Z,2.90
2023-01-30T11:51:17.991Z,4.17
2023-01-30T11:53:49.134Z,4.53
2023-01-30T11:56:30.849Z,3.60
2023-01-30T11:58:59.957Z,4.67
2023-01-30T12:01:30.501Z,3.97
2023-01-30T12:03:58.715Z,4.27
2023-01-30T12:06:34.921Z,4.10
2023-01-30T12:09:01.954Z,3.57
2023-01-30T12:11:31.499Z,3.80
2023-01-30T12:14:27.512Z,4.93
2023-01-30T12:17:02.437Z,3.73
2023-01-30T12:19:39.983Z,3.50
2023-01-30T12:22:24.527Z,3.57
2023-01-30T12:25:25.779Z,3.60
2023-01-30T12:28:10.624Z,3.07
2023-01-30T12:30:43.824Z,3.60
2023-01-30T12:33:15.374Z,3.57
2023-01-30T12:36:02.099Z,4.23
2023-01-30T12:38:58.141Z,4.17
2023-01-30T12:41:52.519Z,3.30
2023-01-30T12:44:45.404Z,3.63
2023-01-30T12:47:14.795Z,3.80
2023-01-30T12:49:54.388Z,3.20
2023-01-30T12:52:41.668Z,4.87
2023-01-30T12:55:32.417Z,3.50
2023-01-30T12:58:36.945Z,4.10
2023-01-30T13:01:16.534Z,3.20
2023-01-30T13:03:50.883Z,3.60
2023-01-30T13:06:52.670Z,4.53
2023-01-30T13:09:53.109Z,3.77
2023-01-30T13:12:32.510Z,4.27
2023-01-30T13:15:08.420Z,4.00
2023-01-30T13:17:40.918Z,4.60
2023-01-30T13:20:13.771Z,3.63
2023-01-30T13:22:49.839Z,3.40
2023-01-30T13:25:53.986Z,3.00
2023-01-30T13:28:26.111Z,4.40
2023-01-30T13:30:55.000Z,4.27
2023-01-30T13:33:28.660Z,3.73
2023-01-30T13:36:03.992Z,4.13
2023-01-30T13:38:34.731Z,3.90
2023-01-30T13:41:03.618Z,4.80
2023-01-30T13:43:41.943Z,4.27
2023-01-30T13:46:12.146Z,5.13
2023-01-30T13:49:06.083Z,4.33
2023-01-30T13:52:02.887Z,4.50
2023-01-30T13:54:47.874Z,3.93
2023-01-30T13:57:24.464Z,4.60
2023-01-30T14:00:07.367Z,5.40
2023-01-30T14:02:33.854Z,4.20
2023-01-30T14:05:03.817Z,4.87
2023-01-30T14:07:41.773Z,4.40
2023-01-30T14:10:20.949Z,5.23
2023-01-30T14:12:54.910Z,4.13
2023-01-30T14:15:25.629Z,4.87
2023-01-30T14:17:58.457Z,4.03
2023-01-30T14:20:27.219Z,4.10
2023-01-30T14:22:58.096Z,4.20
2023-01-30T14:25:30.477Z,5.57
2023-01-30T14:27:59.951Z,4.03
2023-01-30T14:30:47.684Z,4.23
2023-01-30T14:33:23.615Z,4.17
2023-01-30T14:36:02.323Z,5.10
2023-01-30T14:38:36.724Z,5.70
2023-01-30T14:41:03.236Z,4.47
2023-01-30T14:43:41.939Z,5.20
2023-01-30T14:46:17.433Z,5.17
2023-01-30T14:49:16.167Z,4.17
2023-01-30T14:51:45.822Z,3.93
2023-01-30T14:54:12.575Z,4.63
2023-01-30T14:56:59.916Z,5.23
2023-01-30T14:59:59.354Z,4.20
2023-01-30T15:02:44.311Z,3.70
2023-01-30T15:05:15.488Z,4.20
2023-01-30T15:08:02.807Z,4.77
2023-01-30T15:10:44.934Z,5.60
2023-01-30T15:13:30.250Z,5.73
2023-01-30T15:16:15.643Z,4.60
2023-01-30T15:18:48.356Z,4.23
2023-01-30T15:21:29.198Z,4.50
2023-01-30T15:24:30.922Z,4.60
2023-01-30T15:27:27.247Z,4.97
2023-01-30T15:30:32.605Z,4.93
2023-01-30T15:33:29.750Z,4.17
2023-01-30T15:35:57.949Z,5.33
2023-01-30T15:38:28.473Z,4.30
2023-01-30T15:41:06.112Z,4.40
2023-01-30T15:43:48.725Z,3.60
2023-01-30T15:46:30.373Z,5.50
2023-01-30T15:49:07.883Z,4.30
2023-01-30T15:51:34.970Z,3.67
2023-01-30T15:54:08.782Z,4.10
2023-01-30T15:56:35.665Z,4.70
2023-01-30T15:59:02.863Z,4.37
2023-01-30T16:01:30.534Z,4.70
2023-01-30T16:04:00.189Z,5.20
2023-01-30T16:06:32.805Z,5.10
2023-01-30T16:09:18.354Z,5.00
2023-01-30T16:11:44.819Z,5.20
2023-01-30T16:14:13.837Z,4.33
2023-01-30T16:16:57.843Z,4.87
2023-01-30T16:19:37.450Z,5.10
2023-01-30T16:22:07.082Z,4.73
2023-01-30T16:24:36.680Z,5.60
2023-01-30T16:27:07.465Z,4.53
2023-01-30T16:29:46.528Z,5.07
2023-01-30T16:32:17.176Z,5.00
2023-01-30T16:34:43.678Z,4.80
2023-01-30T16:37:16.281Z,4.80
2023-01-30T16:39:43.167Z,6.00
2023-01-30T16:42:24.227Z,5.33
2023-01-30T16:44:50.657Z,5.43
2023-01-30T16:47:27.211Z,5.80
2023-01-30T16:49:55.492Z,5.90
2023-01-30T16:52:36.852Z,5.07
2023-01-30T16:55:06.636Z,5.60
2023-01-30T16:57:43.606Z,5.37
2023-01-30T17:00:21.618Z,5.73
2023-01-30T17:02:56.353Z,5.60
2023-01-30T17:05:28.523Z,4.80
2023-01-30T17:07:56.248Z,5.40
2023-01-30T17:10:28.845Z,5.30
2023-01-30T17:12:56.416Z,5.67
2023-01-30T17:15:22.838Z,4.87
2023-01-30T17:17:49.423Z,5.07
2023-01-30T17:20:16.566Z,4.10
2023-01-30T17:22:45.891Z,4.60
2023-01-30T17:25:31.628Z,5.00
2023-01-30T17:27:58.962Z,7.17
2023-01-30T17:30:25.433Z,5.47
2023-01-30T17:32:51.926Z,4.33
2023-01-30T17:35:18.975Z,5.57
2023-01-30T17:37:53.192Z,5.17
2023-01-30T17:40:37.700Z,5.50
2023-01-30T17:43:04.954Z,6.40
2023-01-30T17:45:31.668Z,5.20
2023-01-30T17:47:58.253Z,6.17
2023-01-30T17:50:24.996Z,5.67
2023-01-30T17:52:51.528Z,5.70
2023-01-30T17:55:18.330Z,5.03
2023-01-30T17:57:47.901Z,5.03
2023-01-30T18:00:17.005Z,5.17
2023-01-30T18:02:43.897Z,5.03
2023-01-30T18:05:11.127Z,5.30
2023-01-30T18:07:38.269Z,6.33
2023-01-30T18:10:05.172Z,6.40
2023-01-30T18:12:31.789Z,4.97
2023-01-30T18:14:58.649Z,5.00
2023-01-30T18:17:28.501Z,4.77
2023-01-30T18:19:55.628Z,4.60
2023-01-30T18:22:22.496Z,5.53
2023-01-30T18:24:49.082Z,5.00
2023-01-30T18:27:15.566Z,6.27
2023-01-30T18:29:41.966Z,5.67
2023-01-30T18:32:08.446Z,5.77
2023-01-30T18:34:35.354Z,5.57
2023-01-30T18:37:01.826Z,6.00
2023-01-30T18:39:28.346Z,5.83
2023-01-30T18:41:54.872Z,5.70
2023-01-30T18:44:21.423Z,4.80
2023-01-30T18:46:50.086Z,5.93
2023-01-30T18:49:16.497Z,5.60
2023-01-30T18:51:42.931Z,5.40
2023-01-30T18:54:09.404Z,5.93
2023-01-30T18:56:36.383Z,7.20
2023-01-30T18:59:05.480Z,6.07
2023-01-30T19:01:35.580Z,5.00
2023-01-30T19:04:03.764Z,5.27
2023-01-30T19:06:30.483Z,7.00
2023-01-30T19:08:57.999Z,6.67
2023-01-30T19:11:43.189Z,5.70
2023-01-30T19:14:10.132Z,4.40
2023-01-30T19:16:38.443Z,6.33
2023-01-30T19:19:06.126Z,5.00
2023-01-30T19:21:32.978Z,5.40
2023-01-30T19:24:02.502Z,6.30
2023-01-30T19:26:29.603Z,5.07
2023-01-30T19:28:56.109Z,6.50
2023-01-30T19:31:22.721Z,4.57
2023-01-30T19:34:00.585Z,5.37
2023-01-30T19:36:30.251Z,5.17
2023-01-30T19:38:59.422Z,5.57
2023-01-30T19:41:29.374Z,5.40
2023-01-30T19:43:58.126Z,6.00
2023-01-30T19:46:25.581Z,5.37
2023-01-30T19:48:52.314Z,5.70
2023-01-30T19:51:24.541Z,5.50
2023-01-30T19:53:54.044Z,5.17
2023-01-30T19:56:22.412Z,5.20
2023-01-30T19:58:52.323Z,5.50
2023-01-30T20:01:21.420Z,5.50
2023-01-30T20:03:48.466Z,5.43
2023-01-30T20:06:20.955Z,4.97
2023-01-30T20:08:50.176Z,5.47
2023-01-30T20:11:21.803Z,6.50
2023-01-30T20:13:49.432Z,4.97
2023-01-30T20:16:20.798Z,6.00
2023-01-30T20:18:49.340Z,6.03
2023-01-30T20:21:18.691Z,5.83
2023-01-30T20:23:46.270Z,5.23
2023-01-30T20:26:17.947Z,4.70
2023-01-30T20:28:44.676Z,5.00
2023-01-30T20:31:23.459Z,4.83
2023-01-30T20:33:50.568Z,6.10
2023-01-30T20:36:19.522Z,4.50
2023-01-30T20:38:47.883Z,4.80
2023-01-30T20:41:20.210Z,4.27
2023-01-30T20:43:51.667Z,4.70
2023-01-30T20:46:21.091Z,5.30
2023-01-30T20:48:48.291Z,4.60
2023-01-30T20:51:17.659Z,5.30
2023-01-30T20:53:51.610Z,4.70
2023-01-30T20:56:19.277Z,4.67
2023-01-30T20:58:45.988Z,5.67
2023-01-30T21:01:18.467Z,4.00
2023-01-30T21:03:46.310Z,5.40
2023-01-30T21:06:12.920Z,5.10
2023-01-30T21:08:40.966Z,4.63
2023-01-30T21:11:10.512Z,6.67
2023-01-30T21:13:38.215Z,4.43
2023-01-30T21:16:11.083Z,4.43
2023-01-30T21:18:39.692Z,4.90
2023-01-30T21:21:08.185Z,5.50
2023-01-30T21:23:35.588Z,4.40
2023-01-30T21:26:07.968Z,4.53
2023-01-30T21:28:36.881Z,6.03
2023-01-30T21:31:18.436Z,9.10
2023-01-30T21:33:45.047Z,6.40
2023-01-30T21:36:12.578Z,4.57
2023-01-30T21:38:57.768Z,4.87
2023-01-30T21:41:46.042Z,4.33
2023-01-30T21:44:13.781Z,4.30
2023-01-30T21:46:46.133Z,4.97
2023-01-30T21:49:13.212Z,4.37
2023-01-30T21:51:44.828Z,5.13
2023-01-30T21:54:11.840Z,5.47
2023-01-30T21:56:39.021Z,4.57
2023-01-30T21:59:06.227Z,4.20
2023-01-30T22:01:34.317Z,4.80
2023-01-30T22:04:03.615Z,5.20
2023-01-30T22:06:30.501Z,4.43
2023-01-30T22:08:59.674Z,4.83
2023-01-30T22:11:27.648Z,11.27
2023-01-30T22:13:54.843Z,5.50
2023-01-30T22:16:27.722Z,5.73
2023-01-30T22:18:56.526Z,5.87
2023-01-30T22:21:25.797Z,5.47
2023-01-30T22:23:53.594Z,6.07
2023-01-30T22:26:22.236Z,5.70
2023-01-30T22:28:48.695Z,4.67
2023-01-30T22:31:18.842Z,4.30
2023-01-30T22:33:51.535Z,4.80
2023-01-30T22:36:18.604Z,5.30
2023-01-30T22:38:46.627Z,5.27
2023-01-30T22:41:17.089Z,4.37
2023-01-30T22:43:45.549Z,5.00
2023-01-30T22:46:13.804Z,4.70
2023-01-30T22:48:41.123Z,5.83
2023-01-30T22:51:13.548Z,5.37
2023-01-30T22:53:42.924Z,4.97
2023-01-30T22:56:11.868Z,5.30
2023-01-30T22:58:39.387Z,5.37
2023-01-30T23:01:07.575Z,5.20
2023-01-30T23:03:34.836Z,5.10
2023-01-30T23:06:04.268Z,6.10
2023-01-30T23:08:33.356Z,5.83
2023-01-30T23:11:10.729Z,5.50
2023-01-30T23:13:38.160Z,6.10
2023-01-30T23:16:06.483Z,6.00
2023-01-30T23:18:52.225Z,5.20
2023-01-30T23:21:18.851Z,6.27
2023-01-30T23:23:46.025Z,7.40
2023-01-30T23:26:13.676Z,5.70
2023-01-30T23:28:40.409Z,5.70
2023-01-30T23:31:09.171Z,6.27
2023-01-30T23:33:35.848Z,6.47
2023-01-30T23:36:07.237Z,6.17
2023-01-30T23:38:34.035Z,5.57
2023-01-30T23:41:12.347Z,5.23
2023-01-30T23:43:40.940Z,5.70
2023-01-30T23:46:30.124Z,6.73
2023-01-30T23:49:02.231Z,6.10
2023-01-30T23:51:30.742Z,5.43
2023-01-30T23:53:57.984Z,5.60
2023-01-30T23:56:27.904Z,5.60
2023-01-30T23:58:54.688Z,6.33
